»·PEaware :: N818JP KBFL-KSZP

N818JP :: KBFL-KSZP

FLIGHT INFORMATION

Flight Status: Arrived
Operator: Privately registered:
United States
More flights under this callsign
Pilot: Anonymous 16594 (16594)
Aircraft: PIPER PA-24 COMMANCHE
(PA24)
More flights by this aircraft type
Origin: KBFL Meadows
United States
Destination: KSZP Santa Paula
United States
More flights between these airports :: More routes between these airports
Route: +
File this flight plan on PilotEdge
Remarks:
Altitude:
(Current/Filed)
8,500ft
Speed:
(Current/Filed)
158kts
Departed: 03-Sep-17 11:17 AM
Arrived: 03-Sep-17 11:53 AM
Distance/Time
Traveled:
65nm/0:36
Distance/Time
To Go:
Arrived

Flight Plot

Page will automatically refresh every two minutes.

Flight plan parsing failed; only flown route is shown


Map Options




Map Legend


Flown Route
Filed Route
Departure Airport
Arrival Airport
Navaid (VOR, NDB)
Fix

Horizontal Profiles

Position Reports

Time Latitude Longitude Heading Altitude Ground
Speed
03-Sep-17 11:04 35.428836 -119.045694 359 510ft 0kts
03-Sep-17 11:05 35.428837 -119.045694 0 510ft 0kts
03-Sep-17 11:06 35.428839 -119.045694 359 510ft 0kts
03-Sep-17 11:07 35.428841 -119.045694 359 510ft 0kts
03-Sep-17 11:08 35.428844 -119.045694 0 510ft 0kts
03-Sep-17 11:09 35.428847 -119.045694 0 510ft 0kts
03-Sep-17 11:10 35.428849 -119.045694 0 510ft 0kts
03-Sep-17 11:11 35.428851 -119.045694 0 510ft 0kts
03-Sep-17 11:12 35.428853 -119.045694 0 510ft 0kts
03-Sep-17 11:13 35.428855 -119.045694 0 510ft 0kts
03-Sep-17 11:14 35.428858 -119.045694 0 510ft 0kts
03-Sep-17 11:15 35.428900 -119.045700 0 510ft 0kts
03-Sep-17 11:16 35.428863 -119.045694 359 510ft 0kts
03-Sep-17 11:17 35.427774 -119.046584 133 510ft 18kts
03-Sep-17 11:18 35.425395 -119.044619 264 510ft 0kts
03-Sep-17 11:19 35.425394 -119.044622 264 510ft 0kts
03-Sep-17 11:20 35.425467 -119.045940 269 510ft 13kts
03-Sep-17 11:21 35.434937 -119.057885 316 590ft 95kts
03-Sep-17 11:22 35.456233 -119.087051 310 918ft 120kts
03-Sep-17 11:23 35.439501 -119.118883 223 1690ft 129kts
03-Sep-17 11:24 35.409842 -119.113931 130 2676ft 138kts
03-Sep-17 11:25 35.377930 -119.096199 177 3792ft 139kts
03-Sep-17 11:26 35.338495 -119.095920 183 4738ft 142kts
03-Sep-17 11:27 35.301075 -119.085508 142 5979ft 141kts
03-Sep-17 11:28 35.267126 -119.057746 146 6555ft 143kts
03-Sep-17 11:29 35.230930 -119.035177 154 7138ft 144kts
03-Sep-17 11:30 35.192347 -119.018259 161 7719ft 142kts
03-Sep-17 11:31 35.154481 -119.009703 177 8127ft 143kts
03-Sep-17 11:32 35.116532 -119.003617 169 8596ft 137kts
03-Sep-17 11:33 35.078368 -118.996277 164 8717ft 138kts
03-Sep-17 11:34 35.040232 -118.988202 165 8828ft 140kts
03-Sep-17 11:35 35.003684 -118.969915 151 9607ft 152kts
03-Sep-17 11:36 34.962432 -118.948704 150 9601ft 159kts
03-Sep-17 11:37 34.922625 -118.922589 144 8640ft 161kts
03-Sep-17 11:38 34.884607 -118.892247 148 7580ft 163kts
03-Sep-17 11:39 34.845820 -118.869108 149 7630ft 155kts
03-Sep-17 11:40 34.819391 -118.891936 260 8093ft 151kts
03-Sep-17 11:41 34.815028 -118.943864 264 8064ft 145kts
03-Sep-17 11:42 34.810043 -118.994420 232 8310ft 148kts
03-Sep-17 11:43 34.781138 -119.031097 215 8857ft 150kts
03-Sep-17 11:44 34.743300 -119.052181 176 9635ft 145kts
03-Sep-17 11:45 34.706360 -119.035887 165 9809ft 158kts
03-Sep-17 11:46 34.660021 -119.029944 172 9293ft 176kts
03-Sep-17 11:47 34.614684 -119.028524 178 8866ft 161kts
03-Sep-17 11:48 34.570582 -119.039378 187 8714ft 162kts
03-Sep-17 11:49 34.526144 -119.047148 178 8274ft 160kts
03-Sep-17 11:50 34.482307 -119.052686 181 7576ft 154kts
03-Sep-17 11:51 34.438358 -119.051561 167 5516ft 157kts
03-Sep-17 11:52 34.401763 -119.025572 144 3336ft 152kts
03-Sep-17 11:53 34.365247 -119.025204 242 1535ft 138kts
03-Sep-17 11:54 34.382461 -119.048621 54 1869ft 127kts
03-Sep-17 11:55 34.361576 -119.036336 229 975ft 121kts
03-Sep-17 11:56 34.346514 -119.062287 236 248ft 50kts
03-Sep-17 11:57 34.345056 -119.064103 156 248ft 2kts
03-Sep-17 11:58 34.346318 -119.061853 334 248ft 0kts
03-Sep-17 11:59 34.346318 -119.061853 334 248ft 0kts
03-Sep-17 12:00 34.346318 -119.061853 334 248ft 0kts
03-Sep-17 12:01 34.346318 -119.061853 334 248ft 0kts
03-Sep-17 12:02 34.346318 -119.061853 334 248ft 0kts
03-Sep-17 12:03 34.346318 -119.061853 334 248ft 0kts
03-Sep-17 12:04 34.346318 -119.061853 334 248ft 0kts
03-Sep-17 12:05 34.346318 -119.061853 334 248ft 0kts
03-Sep-17 12:06 34.346318 -119.061853 334 248ft 0kts
03-Sep-17 12:07 34.346318 -119.061853 334 248ft 0kts
03-Sep-17 12:08 34.346318 -119.061853 334 248ft 0kts
03-Sep-17 12:09 34.346318 -119.061853 334 248ft 0kts
03-Sep-17 12:10 34.346318 -119.061853 334 248ft 0kts
03-Sep-17 12:11 34.346318 -119.061853 334 248ft 0kts
03-Sep-17 12:12 34.346318 -119.061853 334 248ft 0kts

Navigation Log

Ident Type
Flight plan parsing failed, navigation log unavailable